This is the latest recevied weather packets stored in our database for station/object KC3AWA. If no packets are shown the sender has not sent any weather packets the latest 10 day(s).
| Time | Temp. | Humidity | Pressure | Rain* | Wind** | Luminosity | Snow |
|---|---|---|---|---|---|---|---|
| 1777909703 | 18.89° C | 45% | 1009.8 hPa | 0 mm | - | 805 W/m² | - |
| 1777909400 | 18.89° C | 45% | 1009.7 hPa | 0 mm | - | 799 W/m² | - |
| 1777909098 | 18.89° C | 44% | 1009.9 hPa | 0 mm | - | 787 W/m² | - |
| 1777908795 | 17.78° C | 46% | 1009.8 hPa | 0 mm | - | 781 W/m² | - |
| 1777908492 | 18.33° C | 45% | 1009.9 hPa | 0 mm | - | 771 W/m² | - |
| 1777908188 | 17.78° C | 47% | 1010.1 hPa | 0 mm | - | 764 W/m² | - |
| 1777907885 | 18.33° C | 45% | 1009.9 hPa | 0 mm | - | 753 W/m² | - |
| 1777907580 | 18.33° C | 45% | 1009.9 hPa | 0 mm | - | 751 W/m² | - |
| 1777907276 | 18.33° C | 44% | 1009.9 hPa | 0 mm | - | 739 W/m² | - |
| 1777906973 | 17.78° C | 45% | 1009.8 hPa | 0 mm | - | 728 W/m² | - |
| 1777906671 | 17.22° C | 48% | 1010 hPa | 0 mm | - | 717 W/m² | - |
| 1777906367 | 16.67° C | 48% | 1009.9 hPa | 0 mm | - | 705 W/m² | - |
| 1777906064 | 17.22° C | 49% | 1010 hPa | 0 mm | - | 693 W/m² | - |
| 1777905760 | 16.67° C | 49% | 1010 hPa | 0 mm | - | 683 W/m² | - |
| 1777905457 | 16.11° C | 49% | 1010.1 hPa | 0 mm | - | 672 W/m² | - |
| 1777905155 | 16.67° C | 48% | 1010 hPa | 0 mm | - | 659 W/m² | - |
| 1777904852 | 16.11° C | 49% | 1010 hPa | 0 mm | - | 645 W/m² | - |
| 1777904549 | 16.67° C | 48% | 1010.3 hPa | 0 mm | - | 631 W/m² | - |
| 1777904246 | 16.11° C | 49% | 1010.4 hPa | 0 mm | - | 618 W/m² | - |
| 1777903943 | 15.56° C | 51% | 1010.3 hPa | 0 mm | - | 602 W/m² | - |
| 1777903640 | 15.56° C | 49% | 1010.3 hPa | 0 mm | - | 590 W/m² | - |
| 1777903335 | 15.56° C | 49% | 1010.4 hPa | 0 mm | - | 573 W/m² | - |
| 1777903032 | 15.56° C | 51% | 1010.5 hPa | 0 mm | - | 560 W/m² | - |
| 1777902729 | 15.56° C | 48% | 1010.6 hPa | 0 mm | - | 548 W/m² | - |
| 1777902426 | 14.44° C | 51% | 1010.4 hPa | 0 mm | - | 534 W/m² | - |
* Rain latest hour (hover to see other rain measurements)
** Current wind speed in m/s (hover to see current wind gust speed)